createdAt,value
2024-04-22T00:00:37.138Z,100675.69
2024-04-22T00:03:06.766Z,100678.66
2024-04-22T00:05:33.659Z,100682.56
2024-04-22T00:08:03.052Z,100675.97
2024-04-22T00:10:32.558Z,100672.78
2024-04-22T00:13:02.024Z,100667.06
2024-04-22T00:15:28.891Z,100674.31
2024-04-22T00:17:58.337Z,100649.22
2024-04-22T00:20:25.334Z,100647.09
2024-04-22T00:22:54.772Z,100646.44
2024-04-22T00:25:21.644Z,100647.13
2024-04-22T00:27:53.997Z,100641.78
2024-04-22T00:30:23.679Z,100646.00
2024-04-22T00:32:50.734Z,100649.47
2024-04-22T00:35:20.168Z,100654.53
2024-04-22T00:37:47.698Z,100646.44
2024-04-22T00:40:17.278Z,100656.69
2024-04-22T00:42:47.502Z,100641.00
2024-04-22T00:45:19.520Z,100645.13
2024-04-22T00:47:47.110Z,100644.34
2024-04-22T00:50:17.936Z,100639.63
2024-04-22T00:52:46.013Z,100645.75
2024-04-22T00:55:16.346Z,100648.16
2024-04-22T00:57:43.546Z,100642.16
2024-04-22T01:00:13.711Z,100641.53
2024-04-22T01:02:43.531Z,100635.97
2024-04-22T01:05:13.129Z,100634.91
2024-04-22T01:07:40.837Z,100637.09
2024-04-22T01:10:10.971Z,100636.78
2024-04-22T01:12:38.262Z,100637.63
2024-04-22T01:15:08.673Z,100636.59
2024-04-22T01:17:36.420Z,100620.72
2024-04-22T01:20:10.028Z,100631.69
2024-04-22T01:22:40.059Z,100620.53
2024-04-22T01:25:11.659Z,100622.34
2024-04-22T01:27:38.610Z,100621.84
2024-04-22T01:30:10.033Z,100621.88
2024-04-22T01:32:36.996Z,100620.84
2024-04-22T01:35:07.861Z,100617.41
2024-04-22T01:37:34.933Z,100606.47
2024-04-22T01:40:07.676Z,100618.84
2024-04-22T01:42:34.567Z,100614.47
2024-04-22T01:45:04.055Z,100617.31
2024-04-22T01:47:30.883Z,100615.69
2024-04-22T01:50:00.341Z,100602.28
2024-04-22T01:52:27.225Z,100605.88
2024-04-22T01:54:56.715Z,100596.97
2024-04-22T01:57:26.272Z,100595.66
2024-04-22T01:59:55.676Z,100604.75
2024-04-22T02:02:22.508Z,100606.44
2024-04-22T02:04:51.925Z,100600.13
2024-04-22T02:07:18.879Z,100607.03
2024-04-22T02:09:48.462Z,100612.72
2024-04-22T02:12:15.370Z,100608.56
2024-04-22T02:14:47.438Z,100614.28
2024-04-22T02:17:16.740Z,100624.41
2024-04-22T02:19:46.262Z,100616.31
2024-04-22T02:22:13.896Z,100613.47
2024-04-22T02:24:43.362Z,100607.22
2024-04-22T02:27:10.174Z,100611.97
2024-04-22T02:29:39.621Z,100609.91
2024-04-22T02:32:09.446Z,100607.13
2024-04-22T02:34:38.971Z,100612.75
2024-04-22T02:37:05.835Z,100607.56
2024-04-22T02:39:35.327Z,100611.25
2024-04-22T02:42:02.170Z,100611.56
2024-04-22T02:44:31.599Z,100604.81
2024-04-22T02:46:58.405Z,100607.88
2024-04-22T02:49:32.484Z,100609.22
2024-04-22T02:51:59.381Z,100606.94
2024-04-22T02:54:29.703Z,100608.00
2024-04-22T02:56:57.150Z,100601.41
2024-04-22T02:59:26.724Z,100599.50
2024-04-22T03:01:53.534Z,100597.97
2024-04-22T03:04:23.127Z,100596.31
2024-04-22T03:06:52.677Z,100585.47
2024-04-22T03:09:22.401Z,100583.25
2024-04-22T03:11:49.229Z,100586.84
2024-04-22T03:14:18.668Z,100588.59
2024-04-22T03:16:45.572Z,100588.53
2024-04-22T03:19:15.149Z,100577.28
2024-04-22T03:21:41.964Z,100590.81
2024-04-22T03:24:14.332Z,100577.91
2024-04-22T03:26:41.239Z,100577.34
2024-04-22T03:29:10.956Z,100583.06
2024-04-22T03:31:38.001Z,100573.44
2024-04-22T03:34:08.019Z,100583.47
2024-04-22T03:36:35.062Z,100574.16
2024-04-22T03:39:04.782Z,100567.75
2024-04-22T03:41:36.819Z,100567.00
2024-04-22T03:44:06.333Z,100560.00
2024-04-22T03:46:51.870Z,100560.56
2024-04-22T03:49:42.606Z,100569.91
2024-04-22T03:52:12.088Z,100558.50
2024-04-22T03:54:41.652Z,100561.59
2024-04-22T03:57:11.213Z,100555.19
2024-04-22T03:59:41.050Z,100552.41
2024-04-22T04:02:10.736Z,100558.59
2024-04-22T04:04:37.841Z,100559.22
2024-04-22T04:07:08.061Z,100563.06
2024-04-22T04:09:37.019Z,100559.84
2024-04-22T04:12:06.707Z,100561.13
2024-04-22T04:14:36.306Z,100564.50
2024-04-22T04:17:05.980Z,100559.91
2024-04-22T04:19:33.186Z,100564.22
2024-04-22T04:22:02.608Z,100568.53
2024-04-22T04:24:29.415Z,100561.22
2024-04-22T04:26:58.985Z,100563.34
2024-04-22T04:29:25.839Z,100562.59
2024-04-22T04:31:58.249Z,100562.78
2024-04-22T04:34:25.212Z,100565.41
2024-04-22T04:36:54.608Z,100562.53
2024-04-22T04:39:21.461Z,100566.16
2024-04-22T04:41:51.256Z,100573.03
2024-04-22T04:44:18.210Z,100565.47
2024-04-22T04:46:47.897Z,100567.13
2024-04-22T04:49:17.462Z,100569.91
2024-04-22T04:51:48.171Z,100570.22
2024-04-22T04:54:14.993Z,100573.56
2024-04-22T04:56:44.427Z,100577.81
2024-04-22T04:59:11.278Z,100575.25
2024-04-22T05:01:40.810Z,100575.69
2024-04-22T05:04:07.776Z,100571.63
2024-04-22T05:06:39.827Z,100572.78
2024-04-22T05:09:06.732Z,100574.84
2024-04-22T05:11:36.192Z,100577.56
2024-04-22T05:14:03.026Z,100579.16
2024-04-22T05:16:32.790Z,100581.81
2024-04-22T05:18:59.649Z,100576.19
2024-04-22T05:21:29.098Z,100571.56
2024-04-22T05:24:08.689Z,100577.03
2024-04-22T05:26:38.187Z,100574.81
2024-04-22T05:29:05.110Z,100569.94
2024-04-22T05:31:34.607Z,100575.69
2024-04-22T05:34:20.045Z,100564.81
2024-04-22T05:36:49.701Z,100576.72
2024-04-22T05:39:22.199Z,100576.19
2024-04-22T05:41:49.314Z,100580.94
2024-04-22T05:44:18.929Z,100580.44
2024-04-22T05:46:48.644Z,100575.13
2024-04-22T05:49:18.232Z,100572.13
2024-04-22T05:51:47.689Z,100568.78
2024-04-22T05:54:17.151Z,100570.69
2024-04-22T05:56:46.765Z,100573.69
2024-04-22T05:59:19.051Z,100569.41
2024-04-22T06:01:46.186Z,100568.91
2024-04-22T06:04:15.790Z,100570.09
2024-04-22T06:06:42.725Z,100565.69
2024-04-22T06:09:13.392Z,100567.66
2024-04-22T06:11:48.785Z,100566.25
2024-04-22T06:14:28.790Z,100566.63
2024-04-22T06:16:55.783Z,100572.47
2024-04-22T06:19:25.347Z,100565.59
2024-04-22T06:21:52.189Z,100571.41
2024-04-22T06:24:21.614Z,100565.03
2024-04-22T06:26:48.474Z,100562.09
2024-04-22T06:29:17.952Z,100552.78
2024-04-22T06:31:47.520Z,100558.97
2024-04-22T06:34:17.117Z,100560.94
2024-04-22T06:36:45.008Z,100562.53
2024-04-22T06:39:14.711Z,100558.16
2024-04-22T06:41:41.751Z,100554.59
2024-04-22T06:44:11.839Z,100559.44
2024-04-22T06:46:39.099Z,100552.22
2024-04-22T06:49:11.673Z,100553.38
2024-04-22T06:51:38.488Z,100546.38
2024-04-22T06:54:08.467Z,100547.56
2024-04-22T06:56:35.291Z,100547.16
2024-04-22T06:59:05.005Z,100547.03
2024-04-22T07:01:38.776Z,100554.75
2024-04-22T07:04:12.933Z,100536.72
2024-04-22T07:06:39.846Z,100549.03
2024-04-22T07:09:11.531Z,100556.06
2024-04-22T07:11:39.041Z,100553.31
2024-04-22T07:14:13.806Z,100544.75
2024-04-22T07:16:41.648Z,100542.75
2024-04-22T07:19:16.163Z,100536.00
2024-04-22T07:21:42.980Z,100528.63
2024-04-22T07:24:12.674Z,100528.22
2024-04-22T07:26:39.615Z,100536.63
2024-04-22T07:29:10.004Z,100529.47
2024-04-22T07:31:37.382Z,100527.94
2024-04-22T07:34:07.773Z,100535.63
2024-04-22T07:36:38.790Z,100527.75
2024-04-22T07:39:11.331Z,100528.66
2024-04-22T07:41:39.977Z,100521.00
2024-04-22T07:44:10.182Z,100531.03
2024-04-22T07:46:37.119Z,100536.66
2024-04-22T07:49:06.657Z,100542.53
2024-04-22T07:51:33.436Z,100536.19
2024-04-22T07:54:06.627Z,100532.94
2024-04-22T07:56:33.945Z,100537.25
2024-04-22T07:59:05.366Z,100544.63
2024-04-22T08:01:33.093Z,100543.00
2024-04-22T08:04:06.112Z,100538.69
2024-04-22T08:06:37.036Z,100542.72
2024-04-22T08:09:09.488Z,100540.28
2024-04-22T08:11:36.746Z,100542.44
2024-04-22T08:14:07.039Z,100531.53
2024-04-22T08:16:34.967Z,100540.81
2024-04-22T08:19:04.604Z,100548.47
2024-04-22T08:21:32.187Z,100543.03
2024-04-22T08:24:02.221Z,100535.44
2024-04-22T08:26:31.916Z,100541.91
2024-04-22T08:29:01.384Z,100523.97
2024-04-22T08:31:28.317Z,100526.78
2024-04-22T08:33:58.090Z,100530.41
2024-04-22T08:36:25.431Z,100534.22
2024-04-22T08:38:54.907Z,100544.41
2024-04-22T08:41:22.766Z,100523.91
2024-04-22T08:43:54.965Z,100518.22
2024-04-22T08:46:21.984Z,100518.97
2024-04-22T08:48:51.807Z,100522.38
2024-04-22T08:51:20.203Z,100524.84
2024-04-22T08:53:51.220Z,100516.44
2024-04-22T08:56:19.546Z,100516.69
2024-04-22T08:58:50.991Z,100507.78
2024-04-22T09:01:20.779Z,100510.72
2024-04-22T09:03:50.768Z,100505.63
2024-04-22T09:06:18.263Z,100510.47
2024-04-22T09:08:49.536Z,100504.06
2024-04-22T09:13:50.792Z,100505.97
2024-04-22T09:16:20.884Z,100508.09
2024-04-22T09:18:50.740Z,100512.38
2024-04-22T09:21:18.080Z,100503.09
2024-04-22T09:23:51.308Z,100503.16
2024-04-22T09:26:19.225Z,100507.75
2024-04-22T09:28:50.816Z,100508.25
2024-04-22T09:31:22.381Z,100505.97
2024-04-22T09:33:55.041Z,100506.47
2024-04-22T09:36:23.656Z,100498.91
2024-04-22T09:38:54.532Z,100504.59
2024-04-22T09:41:21.706Z,100503.31
2024-04-22T09:43:59.694Z,100495.50
2024-04-22T09:46:34.408Z,100494.81
2024-04-22T09:49:05.618Z,100489.28
2024-04-22T09:51:35.667Z,100494.91
2024-04-22T09:54:05.483Z,100500.00
2024-04-22T09:56:37.129Z,100496.97
2024-04-22T09:59:07.563Z,100498.91
2024-04-22T10:01:37.746Z,100500.44
2024-04-22T10:04:09.371Z,100496.84
2024-04-22T10:06:37.474Z,100501.41
2024-04-22T10:09:07.403Z,100491.13
2024-04-22T10:11:35.374Z,100500.16
2024-04-22T10:14:15.926Z,100501.59
2024-04-22T10:16:57.157Z,100491.25
2024-04-22T10:19:27.247Z,100494.22
2024-04-22T10:22:00.104Z,100485.22
2024-04-22T10:24:40.303Z,100481.25
2024-04-22T10:27:11.876Z,100478.84
2024-04-22T10:29:45.090Z,100484.69
2024-04-22T10:32:14.890Z,100485.78
2024-04-22T10:34:46.560Z,100493.44
2024-04-22T10:37:14.302Z,100489.03
2024-04-22T10:39:44.741Z,100498.53
2024-04-22T10:42:12.017Z,100502.19
2024-04-22T10:44:43.129Z,100499.47
2024-04-22T10:47:12.826Z,100503.31
2024-04-22T10:49:45.494Z,100501.78
2024-04-22T10:52:12.617Z,100504.03
2024-04-22T10:54:42.510Z,100507.72
2024-04-22T10:57:09.754Z,100506.88
2024-04-22T10:59:39.943Z,100498.03
2024-04-22T11:02:08.360Z,100492.53
2024-04-22T11:04:39.366Z,100488.25
2024-04-22T11:07:08.839Z,100477.78
2024-04-22T11:09:38.736Z,100465.03
2024-04-22T11:12:06.338Z,100467.13
2024-04-22T11:14:36.919Z,100468.69
2024-04-22T11:17:04.049Z,100456.88
2024-04-22T11:19:33.561Z,100455.81
2024-04-22T11:22:01.983Z,100454.25
2024-04-22T11:24:34.679Z,100458.31
2024-04-22T11:27:02.438Z,100452.94
2024-04-22T11:29:32.669Z,100442.72
2024-04-22T11:31:59.822Z,100440.44
2024-04-22T11:34:29.495Z,100444.31
2024-04-22T11:36:57.587Z,100432.81
2024-04-22T11:39:30.786Z,100429.06
2024-04-22T11:42:01.294Z,100444.09
2024-04-22T11:44:31.667Z,100437.41
2024-04-22T11:46:58.847Z,100435.06
2024-04-22T11:49:28.411Z,100433.75
2024-04-22T11:51:55.302Z,100428.00
2024-04-22T11:54:24.765Z,100425.16
2024-04-22T11:56:53.007Z,100426.22
2024-04-22T11:59:25.931Z,100434.44
2024-04-22T12:01:53.114Z,100431.66
2024-04-22T12:04:24.215Z,100429.09
2024-04-22T12:06:52.176Z,100426.38
2024-04-22T12:09:22.040Z,100425.16
2024-04-22T12:11:49.551Z,100431.41
2024-04-22T12:14:19.529Z,100424.06
2024-04-22T12:16:50.870Z,100424.31
2024-04-22T12:19:20.766Z,100415.38
2024-04-22T12:21:47.775Z,100417.53
2024-04-22T12:24:17.835Z,100415.88
2024-04-22T12:26:45.432Z,100411.44
2024-04-22T12:29:15.156Z,100407.72
2024-04-22T12:31:42.529Z,100408.16
2024-04-22T12:34:15.147Z,100404.59
2024-04-22T12:36:42.182Z,100403.72
2024-04-22T12:39:11.877Z,100402.56
2024-04-22T12:41:39.011Z,100401.31
2024-04-22T12:44:09.727Z,100401.38
2024-04-22T12:46:58.694Z,100399.28
2024-04-22T12:49:48.939Z,100398.75
2024-04-22T12:52:21.203Z,100399.75
2024-04-22T12:54:50.964Z,100405.81
2024-04-22T12:57:21.430Z,100393.94
2024-04-22T12:59:51.629Z,100401.75
2024-04-22T13:02:22.382Z,100422.31
2024-04-22T13:04:54.948Z,100428.03
2024-04-22T13:07:24.668Z,100452.41
2024-04-22T13:09:54.803Z,100438.00
2024-04-22T13:12:24.306Z,100445.06
2024-04-22T13:14:54.100Z,100455.31
2024-04-22T13:17:21.203Z,100450.44
2024-04-22T13:19:50.791Z,100447.53
2024-04-22T13:22:22.997Z,100444.25
2024-04-22T13:24:49.833Z,100453.16
2024-04-22T13:27:19.312Z,100443.66
2024-04-22T13:29:46.236Z,100423.53
2024-04-22T13:32:19.683Z,100421.69
2024-04-22T13:34:46.898Z,100422.03
2024-04-22T13:37:17.302Z,100415.50
2024-04-22T13:39:49.245Z,100412.06
2024-04-22T13:42:19.030Z,100416.00
2024-04-22T13:44:46.073Z,100419.91
2024-04-22T13:47:16.143Z,100409.00
2024-04-22T13:52:46.329Z,100419.72
2024-04-22T13:55:13.142Z,100423.44
2024-04-22T13:57:42.496Z,100418.97
2024-04-22T14:00:13.084Z,100418.84
2024-04-22T14:02:44.879Z,100414.75
2024-04-22T14:05:11.774Z,100413.06
2024-04-22T14:07:41.332Z,100409.56
2024-04-22T14:10:10.822Z,100412.00
2024-04-22T14:12:40.323Z,100409.88
2024-04-22T14:15:08.336Z,100410.28
2024-04-22T14:17:40.257Z,100404.53
2024-04-22T14:20:08.256Z,100399.69
2024-04-22T14:22:37.815Z,100403.72
2024-04-22T14:25:07.001Z,100393.50
2024-04-22T14:27:39.153Z,100396.91
2024-04-22T14:30:07.257Z,100385.94
2024-04-22T14:32:36.741Z,100390.66
2024-04-22T14:35:03.956Z,100379.53
2024-04-22T14:37:34.350Z,100380.84
2024-04-22T14:40:02.040Z,100378.91
2024-04-22T14:42:34.086Z,100368.16
2024-04-22T14:45:03.765Z,100359.13
2024-04-22T14:47:33.167Z,100355.22
2024-04-22T14:49:59.956Z,100354.53
2024-04-22T14:52:29.654Z,100343.91
2024-04-22T14:54:56.480Z,100345.91
2024-04-22T14:57:29.850Z,100342.38
2024-04-22T14:59:56.643Z,100340.84
2024-04-22T15:02:28.774Z,100346.31
2024-04-22T15:04:55.571Z,100338.31
2024-04-22T15:07:25.075Z,100334.94
2024-04-22T15:09:52.195Z,100329.84
2024-04-22T15:12:21.691Z,100334.06
2024-04-22T15:14:48.475Z,100326.41
2024-04-22T15:17:17.848Z,100332.16
2024-04-22T15:19:47.254Z,100328.31
2024-04-22T15:22:16.638Z,100327.22
2024-04-22T15:24:43.397Z,100319.13
2024-04-22T15:27:13.292Z,100309.63
2024-04-22T15:29:40.356Z,100316.84
2024-04-22T15:32:12.329Z,100305.34
2024-04-22T15:34:41.593Z,100310.66
2024-04-22T15:37:15.217Z,100305.53
2024-04-22T15:39:44.503Z,100304.28
2024-04-22T15:42:14.054Z,100302.53
2024-04-22T15:44:40.899Z,100309.03
2024-04-22T15:47:10.447Z,100309.91
2024-04-22T15:49:38.463Z,100308.09
2024-04-22T15:52:08.534Z,100303.81
2024-04-22T15:54:37.922Z,100304.13
2024-04-22T15:57:07.931Z,100295.31
2024-04-22T15:59:34.695Z,100296.50
2024-04-22T16:02:05.495Z,100290.47
2024-04-22T16:04:32.299Z,100291.59
2024-04-22T16:07:01.729Z,100294.47
2024-04-22T16:09:31.120Z,100291.63
2024-04-22T16:12:03.592Z,100293.03
2024-04-22T16:14:30.676Z,100292.00
2024-04-22T16:17:00.059Z,100291.47
2024-04-22T16:19:26.893Z,100284.34
2024-04-22T16:21:56.272Z,100278.59
2024-04-22T16:24:23.120Z,100279.28
2024-04-22T16:26:53.452Z,100272.59
2024-04-22T16:29:22.962Z,100280.94
2024-04-22T16:31:52.396Z,100284.97
2024-04-22T16:34:19.189Z,100283.91
2024-04-22T16:36:48.587Z,100282.50
2024-04-22T16:39:15.350Z,100287.09
2024-04-22T16:41:44.738Z,100282.06
2024-04-22T16:44:11.556Z,100281.88
2024-04-22T16:46:43.694Z,100283.88
2024-04-22T16:49:10.456Z,100281.38
2024-04-22T16:51:40.949Z,100282.78
2024-04-22T16:54:07.697Z,100280.31
2024-04-22T16:56:37.115Z,100289.19
2024-04-22T16:59:03.870Z,100277.94
2024-04-22T17:01:33.343Z,100285.69
2024-04-22T17:04:02.992Z,100282.69
2024-04-22T17:06:32.394Z,100281.88
2024-04-22T17:08:59.196Z,100288.03
2024-04-22T17:11:28.604Z,100284.66
2024-04-22T17:13:55.518Z,100286.13
2024-04-22T17:16:24.991Z,100277.25
2024-04-22T17:18:52.882Z,100288.19
2024-04-22T17:21:24.970Z,100277.63
2024-04-22T17:23:51.764Z,100277.72
2024-04-22T17:26:23.256Z,100281.50
2024-04-22T17:28:50.145Z,100284.75
2024-04-22T17:31:19.674Z,100270.75
2024-04-22T17:33:46.494Z,100273.72
2024-04-22T17:36:15.942Z,100275.50
2024-04-22T17:38:45.961Z,100276.97
2024-04-22T17:41:15.349Z,100280.19
2024-04-22T17:43:42.488Z,100274.97
2024-04-22T17:46:12.043Z,100283.84
2024-04-22T17:48:39.032Z,100277.94
2024-04-22T17:51:08.647Z,100278.53
2024-04-22T17:53:47.166Z,100281.13
2024-04-22T17:56:19.214Z,100276.81
2024-04-22T17:58:47.125Z,100285.47
2024-04-22T18:01:20.788Z,100288.41
2024-04-22T18:03:47.695Z,100292.69
2024-04-22T18:06:20.346Z,100293.88
2024-04-22T18:08:51.126Z,100289.56
2024-04-22T18:11:25.593Z,100290.75
2024-04-22T18:13:52.552Z,100283.47
2024-04-22T18:16:22.174Z,100294.44
2024-04-22T18:18:49.326Z,100281.75
2024-04-22T18:21:26.232Z,100276.75
2024-04-22T18:23:58.949Z,100287.81
2024-04-22T18:26:34.014Z,100285.19
2024-04-22T18:29:00.961Z,100283.06
2024-04-22T18:31:31.577Z,100287.03
2024-04-22T18:33:58.356Z,100295.75
2024-04-22T18:36:27.719Z,100295.69
2024-04-22T18:38:54.531Z,100295.28
2024-04-22T18:41:24.386Z,100292.84
2024-04-22T18:43:53.893Z,100296.16
2024-04-22T18:46:23.783Z,100298.81
2024-04-22T18:48:50.607Z,100296.84
2024-04-22T18:51:24.735Z,100300.66
2024-04-22T18:53:52.072Z,100302.59
2024-04-22T18:56:22.708Z,100292.25
2024-04-22T18:58:49.572Z,100295.69
2024-04-22T19:01:23.519Z,100294.22
2024-04-22T19:03:50.395Z,100293.31
2024-04-22T19:06:19.807Z,100301.13
2024-04-22T19:08:46.605Z,100303.88
2024-04-22T19:11:16.003Z,100300.44
2024-04-22T19:13:44.683Z,100310.38
2024-04-22T19:16:14.202Z,100308.09
2024-04-22T19:18:43.611Z,100313.91
2024-04-22T19:21:12.975Z,100311.19
2024-04-22T19:23:40.014Z,100316.75
2024-04-22T19:26:11.989Z,100311.41
2024-04-22T19:28:38.871Z,100317.88
2024-04-22T19:31:09.136Z,100326.50
2024-04-22T19:33:36.133Z,100319.78
2024-04-22T19:36:08.771Z,100325.13
2024-04-22T19:38:35.550Z,100328.97
2024-04-22T19:41:04.953Z,100328.56
2024-04-22T19:43:31.865Z,100328.88
2024-04-22T19:46:01.287Z,100331.84
2024-04-22T19:48:28.260Z,100340.50
2024-04-22T19:50:57.616Z,100341.84
2024-04-22T19:53:27.148Z,100336.13
2024-04-22T19:55:57.014Z,100340.41
2024-04-22T19:58:24.025Z,100329.81
2024-04-22T20:00:53.481Z,100337.97
2024-04-22T20:03:20.368Z,100337.78
2024-04-22T20:05:49.835Z,100342.13
2024-04-22T20:08:16.614Z,100349.59
2024-04-22T20:10:48.808Z,100341.16
2024-04-22T20:13:16.719Z,100345.38
2024-04-22T20:16:04.468Z,100344.28
2024-04-22T20:18:42.207Z,100351.66
2024-04-22T20:21:12.028Z,100346.53
2024-04-22T20:23:38.842Z,100342.41
2024-04-22T20:26:10.809Z,100339.84
2024-04-22T20:28:37.660Z,100349.31
2024-04-22T20:31:07.451Z,100349.66
2024-04-22T20:33:34.650Z,100355.13
2024-04-22T20:36:04.435Z,100358.22
2024-04-22T20:38:31.214Z,100358.34
2024-04-22T20:41:00.985Z,100362.09
2024-04-22T20:43:33.003Z,100358.47
2024-04-22T20:46:02.489Z,100350.56
2024-04-22T20:48:32.838Z,100347.09
2024-04-22T20:51:02.853Z,100350.09
2024-04-22T20:53:30.140Z,100340.22
2024-04-22T20:56:02.787Z,100343.00
2024-04-22T20:58:32.748Z,100343.81
2024-04-22T21:01:03.417Z,100340.63
2024-04-22T21:03:30.463Z,100341.19
2024-04-22T21:06:01.320Z,100342.59
2024-04-22T21:08:28.759Z,100343.50
2024-04-22T21:10:58.891Z,100343.94
2024-04-22T21:13:26.092Z,100348.84
2024-04-22T21:15:59.295Z,100344.44
2024-04-22T21:18:26.084Z,100339.22
2024-04-22T21:20:55.469Z,100336.38
2024-04-22T21:23:22.231Z,100335.38
2024-04-22T21:25:51.847Z,100344.06
2024-04-22T21:28:18.972Z,100338.84
2024-04-22T21:30:48.399Z,100336.19
2024-04-22T21:33:34.110Z,100331.50
2024-04-22T21:36:07.652Z,100326.53
2024-04-22T21:38:34.408Z,100329.28
2024-04-22T21:41:03.832Z,100334.25
2024-04-22T21:43:30.656Z,100337.72
2024-04-22T21:46:00.228Z,100326.03
2024-04-22T21:48:29.747Z,100327.56
2024-04-22T21:50:59.193Z,100333.19
2024-04-22T21:53:25.984Z,100332.94
2024-04-22T21:56:08.430Z,100334.63
2024-04-22T21:59:12.884Z,100341.63
2024-04-22T22:02:19.641Z,100330.06
2024-04-22T22:05:23.928Z,100332.06
2024-04-22T22:07:53.136Z,100340.25
2024-04-22T22:10:22.897Z,100334.13
2024-04-22T22:12:52.275Z,100333.09
2024-04-22T22:15:19.114Z,100332.63
2024-04-22T22:17:50.429Z,100339.34
2024-04-22T22:20:18.783Z,100346.34
2024-04-22T22:22:48.183Z,100332.72
2024-04-22T22:25:14.930Z,100340.63
2024-04-22T22:27:50.194Z,100333.22
2024-04-22T22:30:18.574Z,100335.50
2024-04-22T22:32:48.329Z,100331.34
2024-04-22T22:35:15.134Z,100326.25
2024-04-22T22:37:44.608Z,100332.03
2024-04-22T22:40:11.468Z,100336.97
2024-04-22T22:42:40.845Z,100326.69
2024-04-22T22:45:10.268Z,100329.06
2024-04-22T22:47:40.934Z,100331.69
2024-04-22T22:50:08.046Z,100333.75
2024-04-22T22:52:37.549Z,100321.31
2024-04-22T22:55:04.866Z,100325.38
2024-04-22T22:57:34.200Z,100326.00
2024-04-22T23:00:00.931Z,100324.16
2024-04-22T23:02:32.978Z,100323.72
2024-04-22T23:04:59.858Z,100324.81
2024-04-22T23:07:29.302Z,100326.97
2024-04-22T23:09:56.071Z,100329.84
2024-04-22T23:12:25.443Z,100323.06
2024-04-22T23:14:52.206Z,100330.56
2024-04-22T23:17:21.591Z,100320.38
2024-04-22T23:19:51.103Z,100319.13
2024-04-22T23:22:21.388Z,100317.81
2024-04-22T23:24:48.135Z,100317.47
2024-04-22T23:27:20.556Z,100324.13
2024-04-22T23:29:47.625Z,100328.88
2024-04-22T23:32:16.961Z,100318.84
2024-04-22T23:34:43.858Z,100318.34
2024-04-22T23:37:15.891Z,100321.81
2024-04-22T23:39:42.697Z,100313.44
2024-04-22T23:42:12.061Z,100316.09
2024-04-22T23:44:38.913Z,100308.22
2024-04-22T23:47:08.388Z,100311.09
2024-04-22T23:49:35.206Z,100305.47
2024-04-22T23:52:05.795Z,100309.38
2024-04-22T23:54:35.165Z,100308.72
2024-04-22T23:57:05.533Z,100307.94
2024-04-22T23:59:32.411Z,100298.03
